Aérodrome :
LOGIN :

S'inscrire | Disclaimer

   EN    FR    IT 

 










Légende :    VFR   VFR Marginal   IFR   IFR Intensif   IFR Très Intensif
Visi : 
Plafond : 
>= 8 km
>= 3000ft
5 à 8 km
1000 à 3000 ft
1500m à 5 km
500 à 1000 ft
800 à 1500m
200 à 500 ft
< 800m
< 200 ft
Symboles :   Orages  Brouillard  Fortes neiges  Fortes précipitations  Vent > 20 kt
SIGMETs :   Divers  Orages  Givrage  Turbulence  Onde Orograph.  Cendres Volcan.






- Altitude de l'aérodrome : 157 ft
- Code IATA : LIL


LFQQ - Lille Lesquin

DERNIER METAR :
  • 110300Z AUTO 18012KT 9999 -RA FEW006/// SCT019/// BKN041/// ///CB 07/06 Q1010 TEMPO OVC010

METARs EXPIRÉS :
  • 110230Z AUTO 19013KT 9999 -RA BKN007/// BKN024/// BKN038/// ///TCU 07/06 Q1010 TEMPO OVC010
  • 110200Z AUTO 20014KT 9999 -RA BKN007/// BKN012/// OVC018/// ///TCU 07/06 Q1010 TEMPO OVC010
  • 110130Z AUTO 19017KT 9999 BKN011 OVC019 07/05 Q1010 TEMPO BKN040
  • 110100Z AUTO 18018KT 9999 BKN010 BKN015 OVC023 07/05 Q1010 BECMG BKN040
  • 110030Z AUTO 18019KT 9999 OVC010 07/05 Q1010 BECMG BKN040

TAF TAF LFQQ
Valide du 11 à 00h jusqu'au 12 à 06h UTC


102300Z 1100/1206 17020G30KT 9999 BKN040
BECMG 1100/1103 22010KT
PROB30 1103/1110 OVC010
TEMPO 1122/1124 3000 RA BKN013
ATIS : +33 3 20 16 19 54



MET'MAP, la Météo Aéronautique d'un coup d'oeil ! - Copyright ORBIFLY Décembre 2007 - Disclaimer

ORBIFLY MET'MAP TEAM :

Programmation & Développement : Alexandra Zaïnal
Sur une idée originale de : Baudouin d'Aumeries
Assistance à la programmation : Marc-Olivier Méhu
Soutien technique & logistique : Manuel Goepfert

Contact : metmap@orbifly.com




SOURCES & CREDITS :

   NOAA